sensor_id;sensor_type;location;lat;lon;timestamp;P1;durP1;ratioP1;P2;durP2;ratioP2
64543;SDS011;50936;51.660;5.616;2022-08-01T00:00:13;20.35;;;9.32;;
64543;SDS011;50936;51.660;5.616;2022-08-01T00:02:40;26.15;;;10.05;;
64543;SDS011;50936;51.660;5.616;2022-08-01T00:05:07;25.75;;;10.75;;
64543;SDS011;50936;51.660;5.616;2022-08-01T00:07:36;27.48;;;11.48;;
64543;SDS011;50936;51.660;5.616;2022-08-01T00:10:05;25.67;;;10.13;;
64543;SDS011;50936;51.660;5.616;2022-08-01T00:12:37;21.02;;;10.35;;
64543;SDS011;50936;51.660;5.616;2022-08-01T00:15:04;26.00;;;11.30;;
64543;SDS011;50936;51.660;5.616;2022-08-01T00:17:33;22.70;;;11.15;;
64543;SDS011;50936;51.660;5.616;2022-08-01T00:20:01;28.35;;;12.18;;
64543;SDS011;50936;51.660;5.616;2022-08-01T00:22:31;20.13;;;10.85;;
64543;SDS011;50936;51.660;5.616;2022-08-01T00:25:00;25.45;;;10.60;;
64543;SDS011;50936;51.660;5.616;2022-08-01T00:27:27;26.02;;;10.98;;
64543;SDS011;50936;51.660;5.616;2022-08-01T00:29:54;25.58;;;10.48;;
64543;SDS011;50936;51.660;5.616;2022-08-01T00:32:41;25.40;;;12.02;;
64543;SDS011;50936;51.660;5.616;2022-08-01T00:35:09;27.00;;;11.63;;
64543;SDS011;50936;51.660;5.616;2022-08-01T00:37:36;25.92;;;11.55;;
64543;SDS011;50936;51.660;5.616;2022-08-01T00:40:03;28.85;;;12.38;;
64543;SDS011;50936;51.660;5.616;2022-08-01T00:42:31;23.88;;;11.55;;
64543;SDS011;50936;51.660;5.616;2022-08-01T00:44:58;25.73;;;12.27;;
64543;SDS011;50936;51.660;5.616;2022-08-01T00:47:25;23.40;;;11.82;;
64543;SDS011;50936;51.660;5.616;2022-08-01T00:49:52;26.48;;;12.15;;
64543;SDS011;50936;51.660;5.616;2022-08-01T00:52:19;22.67;;;11.23;;
64543;SDS011;50936;51.660;5.616;2022-08-01T00:54:46;26.95;;;12.77;;
64543;SDS011;50936;51.660;5.616;2022-08-01T00:57:14;25.60;;;12.18;;
64543;SDS011;50936;51.660;5.616;2022-08-01T00:59:48;27.75;;;11.52;;
64543;SDS011;50936;51.660;5.616;2022-08-01T01:02:14;25.58;;;11.95;;
64543;SDS011;50936;51.660;5.616;2022-08-01T01:04:42;24.90;;;11.00;;
64543;SDS011;50936;51.660;5.616;2022-08-01T01:07:10;21.90;;;9.70;;
64543;SDS011;50936;51.660;5.616;2022-08-01T01:12:38;23.73;;;9.98;;
64543;SDS011;50936;51.660;5.616;2022-08-01T01:15:49;21.05;;;9.55;;
64543;SDS011;50936;51.660;5.616;2022-08-01T01:18:25;20.70;;;9.85;;
64543;SDS011;50936;51.660;5.616;2022-08-01T01:32:36;18.17;;;9.73;;
64543;SDS011;50936;51.660;5.616;2022-08-01T01:35:09;17.88;;;9.05;;
64543;SDS011;50936;51.660;5.616;2022-08-01T01:37:42;24.60;;;10.85;;
64543;SDS011;50936;51.660;5.616;2022-08-01T01:40:14;20.77;;;9.35;;
64543;SDS011;50936;51.660;5.616;2022-08-01T01:42:44;21.60;;;9.88;;
64543;SDS011;50936;51.660;5.616;2022-08-01T01:45:13;22.38;;;9.55;;
64543;SDS011;50936;51.660;5.616;2022-08-01T01:47:42;19.83;;;9.57;;
64543;SDS011;50936;51.660;5.616;2022-08-01T01:50:11;21.83;;;9.98;;
64543;SDS011;50936;51.660;5.616;2022-08-01T01:52:40;22.95;;;10.30;;
64543;SDS011;50936;51.660;5.616;2022-08-01T01:55:11;18.77;;;9.43;;
64543;SDS011;50936;51.660;5.616;2022-08-01T01:57:41;20.05;;;9.77;;
64543;SDS011;50936;51.660;5.616;2022-08-01T02:00:10;22.15;;;9.70;;
64543;SDS011;50936;51.660;5.616;2022-08-01T02:02:39;18.48;;;9.95;;
64543;SDS011;50936;51.660;5.616;2022-08-01T02:05:09;19.25;;;9.77;;
64543;SDS011;50936;51.660;5.616;2022-08-01T02:07:38;18.77;;;8.98;;
64543;SDS011;50936;51.660;5.616;2022-08-01T02:10:07;17.90;;;9.05;;
64543;SDS011;50936;51.660;5.616;2022-08-01T02:12:37;20.88;;;9.13;;
64543;SDS011;50936;51.660;5.616;2022-08-01T02:15:09;21.27;;;9.43;;
64543;SDS011;50936;51.660;5.616;2022-08-01T02:17:41;19.42;;;8.80;;
64543;SDS011;50936;51.660;5.616;2022-08-01T02:20:13;17.80;;;8.93;;
64543;SDS011;50936;51.660;5.616;2022-08-01T02:22:42;19.63;;;8.70;;
64543;SDS011;50936;51.660;5.616;2022-08-01T02:25:16;18.85;;;9.40;;
64543;SDS011;50936;51.660;5.616;2022-08-01T02:27:54;21.52;;;9.18;;
64543;SDS011;50936;51.660;5.616;2022-08-01T02:30:35;18.70;;;8.85;;
64543;SDS011;50936;51.660;5.616;2022-08-01T02:33:07;16.80;;;8.93;;
64543;SDS011;50936;51.660;5.616;2022-08-01T02:35:42;17.63;;;8.63;;
64543;SDS011;50936;51.660;5.616;2022-08-01T02:38:34;18.13;;;9.13;;
64543;SDS011;50936;51.660;5.616;2022-08-01T02:41:11;19.92;;;8.25;;
64543;SDS011;50936;51.660;5.616;2022-08-01T02:43:47;18.02;;;8.45;;
64543;SDS011;50936;51.660;5.616;2022-08-01T02:46:22;19.95;;;9.13;;
64543;SDS011;50936;51.660;5.616;2022-08-01T02:48:59;19.17;;;9.20;;
64543;SDS011;50936;51.660;5.616;2022-08-01T02:51:31;16.58;;;9.20;;
64543;SDS011;50936;51.660;5.616;2022-08-01T02:54:01;19.42;;;9.65;;
64543;SDS011;50936;51.660;5.616;2022-08-01T02:56:33;19.23;;;9.07;;
64543;SDS011;50936;51.660;5.616;2022-08-01T02:59:03;21.92;;;8.85;;
64543;SDS011;50936;51.660;5.616;2022-08-01T03:01:35;18.15;;;8.98;;
64543;SDS011;50936;51.660;5.616;2022-08-01T03:04:07;18.63;;;8.77;;
64543;SDS011;50936;51.660;5.616;2022-08-01T03:06:35;26.83;;;9.23;;
64543;SDS011;50936;51.660;5.616;2022-08-01T03:09:04;17.45;;;8.57;;
64543;SDS011;50936;51.660;5.616;2022-08-01T03:11:34;20.73;;;9.27;;
64543;SDS011;50936;51.660;5.616;2022-08-01T03:14:06;19.00;;;9.13;;
64543;SDS011;50936;51.660;5.616;2022-08-01T03:16:36;18.90;;;9.07;;
64543;SDS011;50936;51.660;5.616;2022-08-01T03:19:08;22.17;;;9.48;;
64543;SDS011;50936;51.660;5.616;2022-08-01T03:21:38;19.33;;;9.32;;
64543;SDS011;50936;51.660;5.616;2022-08-01T03:24:08;23.38;;;8.98;;
64543;SDS011;50936;51.660;5.616;2022-08-01T03:26:38;18.15;;;8.68;;
64543;SDS011;50936;51.660;5.616;2022-08-01T03:29:12;21.75;;;9.05;;
64543;SDS011;50936;51.660;5.616;2022-08-01T03:31:48;21.75;;;9.10;;
64543;SDS011;50936;51.660;5.616;2022-08-01T03:34:16;25.63;;;9.55;;
64543;SDS011;50936;51.660;5.616;2022-08-01T03:36:47;21.00;;;8.77;;
64543;SDS011;50936;51.660;5.616;2022-08-01T03:39:22;18.27;;;7.85;;
64543;SDS011;50936;51.660;5.616;2022-08-01T03:41:57;18.92;;;8.63;;
64543;SDS011;50936;51.660;5.616;2022-08-01T03:44:35;20.15;;;8.80;;
64543;SDS011;50936;51.660;5.616;2022-08-01T03:47:06;21.08;;;9.50;;
64543;SDS011;50936;51.660;5.616;2022-08-01T03:49:37;19.02;;;8.88;;
64543;SDS011;50936;51.660;5.616;2022-08-01T03:52:09;19.63;;;9.18;;
64543;SDS011;50936;51.660;5.616;2022-08-01T03:54:40;19.58;;;9.13;;
64543;SDS011;50936;51.660;5.616;2022-08-01T03:57:12;20.63;;;9.50;;
64543;SDS011;50936;51.660;5.616;2022-08-01T04:00:01;19.70;;;9.45;;
64543;SDS011;50936;51.660;5.616;2022-08-01T04:02:37;20.23;;;8.98;;
64543;SDS011;50936;51.660;5.616;2022-08-01T04:05:05;21.15;;;8.88;;
64543;SDS011;50936;51.660;5.616;2022-08-01T04:07:33;20.35;;;8.45;;
64543;SDS011;50936;51.660;5.616;2022-08-01T04:12:33;19.95;;;8.63;;
64543;SDS011;50936;51.660;5.616;2022-08-01T04:15:01;23.00;;;9.10;;
64543;SDS011;50936;51.660;5.616;2022-08-01T04:17:29;22.45;;;7.80;;
64543;SDS011;50936;51.660;5.616;2022-08-01T04:19:56;25.58;;;8.93;;
64543;SDS011;50936;51.660;5.616;2022-08-01T04:22:23;18.35;;;8.57;;
64543;SDS011;50936;51.660;5.616;2022-08-01T04:24:50;22.80;;;8.65;;
64543;SDS011;50936;51.660;5.616;2022-08-01T04:27:25;19.02;;;8.80;;
64543;SDS011;50936;51.660;5.616;2022-08-01T04:30:15;19.75;;;7.70;;
64543;SDS011;50936;51.660;5.616;2022-08-01T04:32:47;17.67;;;8.23;;
64543;SDS011;50936;51.660;5.616;2022-08-01T04:35:16;21.92;;;8.88;;
64543;SDS011;50936;51.660;5.616;2022-08-01T04:38:07;18.85;;;8.80;;
64543;SDS011;50936;51.660;5.616;2022-08-01T04:40:36;20.00;;;8.95;;
64543;SDS011;50936;51.660;5.616;2022-08-01T04:43:04;20.17;;;9.10;;
64543;SDS011;50936;51.660;5.616;2022-08-01T04:45:32;22.10;;;8.30;;
64543;SDS011;50936;51.660;5.616;2022-08-01T04:48:01;19.55;;;7.80;;
64543;SDS011;50936;51.660;5.616;2022-08-01T04:50:32;18.85;;;8.48;;
64543;SDS011;50936;51.660;5.616;2022-08-01T04:53:02;26.90;;;9.25;;
64543;SDS011;50936;51.660;5.616;2022-08-01T04:55:30;19.50;;;9.07;;
64543;SDS011;50936;51.660;5.616;2022-08-01T04:57:57;17.05;;;7.85;;
64543;SDS011;50936;51.660;5.616;2022-08-01T05:00:25;17.20;;;7.93;;
64543;SDS011;50936;51.660;5.616;2022-08-01T05:02:52;18.30;;;7.60;;
64543;SDS011;50936;51.660;5.616;2022-08-01T05:05:19;20.80;;;8.57;;
64543;SDS011;50936;51.660;5.616;2022-08-01T05:07:47;22.42;;;9.02;;
64543;SDS011;50936;51.660;5.616;2022-08-01T05:10:14;18.92;;;8.75;;
64543;SDS011;50936;51.660;5.616;2022-08-01T05:12:40;18.52;;;8.75;;
64543;SDS011;50936;51.660;5.616;2022-08-01T05:15:07;21.40;;;8.70;;
64543;SDS011;50936;51.660;5.616;2022-08-01T05:17:40;22.67;;;8.70;;
64543;SDS011;50936;51.660;5.616;2022-08-01T05:20:11;22.55;;;9.35;;
64543;SDS011;50936;51.660;5.616;2022-08-01T05:22:38;16.27;;;8.05;;
64543;SDS011;50936;51.660;5.616;2022-08-01T05:25:05;19.00;;;8.50;;
64543;SDS011;50936;51.660;5.616;2022-08-01T05:27:33;18.92;;;8.55;;
64543;SDS011;50936;51.660;5.616;2022-08-01T05:30:06;18.30;;;9.18;;
64543;SDS011;50936;51.660;5.616;2022-08-01T05:32:35;18.58;;;8.82;;
64543;SDS011;50936;51.660;5.616;2022-08-01T05:35:03;18.63;;;7.30;;
64543;SDS011;50936;51.660;5.616;2022-08-01T05:37:31;20.38;;;8.52;;
64543;SDS011;50936;51.660;5.616;2022-08-01T05:39:57;18.23;;;8.00;;
64543;SDS011;50936;51.660;5.616;2022-08-01T05:42:25;16.30;;;8.38;;
64543;SDS011;50936;51.660;5.616;2022-08-01T05:44:52;15.75;;;7.00;;
64543;SDS011;50936;51.660;5.616;2022-08-01T05:47:19;16.67;;;7.50;;
64543;SDS011;50936;51.660;5.616;2022-08-01T05:49:46;13.40;;;6.93;;
64543;SDS011;50936;51.660;5.616;2022-08-01T05:52:12;12.18;;;6.13;;
64543;SDS011;50936;51.660;5.616;2022-08-01T05:54:40;13.77;;;7.00;;
64543;SDS011;50936;51.660;5.616;2022-08-01T05:57:07;14.38;;;6.85;;
64543;SDS011;50936;51.660;5.616;2022-08-01T05:59:34;14.45;;;7.20;;
64543;SDS011;50936;51.660;5.616;2022-08-01T06:02:00;14.35;;;6.68;;
64543;SDS011;50936;51.660;5.616;2022-08-01T06:04:27;14.05;;;7.20;;
64543;SDS011;50936;51.660;5.616;2022-08-01T06:06:54;12.50;;;6.63;;
64543;SDS011;50936;51.660;5.616;2022-08-01T06:09:21;15.60;;;7.55;;
64543;SDS011;50936;51.660;5.616;2022-08-01T06:11:48;13.93;;;7.35;;
64543;SDS011;50936;51.660;5.616;2022-08-01T06:14:15;10.98;;;6.18;;
64543;SDS011;50936;51.660;5.616;2022-08-01T06:16:42;17.38;;;7.82;;
64543;SDS011;50936;51.660;5.616;2022-08-01T06:19:09;13.68;;;7.80;;
64543;SDS011;50936;51.660;5.616;2022-08-01T06:21:36;13.68;;;6.32;;
64543;SDS011;50936;51.660;5.616;2022-08-01T06:24:03;11.20;;;6.50;;
64543;SDS011;50936;51.660;5.616;2022-08-01T06:26:30;15.93;;;6.75;;
64543;SDS011;50936;51.660;5.616;2022-08-01T06:28:57;10.48;;;6.43;;
64543;SDS011;50936;51.660;5.616;2022-08-01T06:31:24;12.48;;;7.15;;
64543;SDS011;50936;51.660;5.616;2022-08-01T06:33:57;10.27;;;5.22;;
64543;SDS011;50936;51.660;5.616;2022-08-01T06:36:23;12.52;;;6.72;;
64543;SDS011;50936;51.660;5.616;2022-08-01T06:38:51;10.88;;;5.90;;
64543;SDS011;50936;51.660;5.616;2022-08-01T06:41:18;10.60;;;5.82;;
64543;SDS011;50936;51.660;5.616;2022-08-01T06:43:45;8.88;;;5.10;;
64543;SDS011;50936;51.660;5.616;2022-08-01T06:46:12;9.10;;;5.47;;
64543;SDS011;50936;51.660;5.616;2022-08-01T06:48:39;8.52;;;4.82;;
64543;SDS011;50936;51.660;5.616;2022-08-01T06:51:06;10.40;;;5.53;;
64543;SDS011;50936;51.660;5.616;2022-08-01T06:53:37;12.45;;;5.80;;
64543;SDS011;50936;51.660;5.616;2022-08-01T06:56:05;8.65;;;5.25;;
64543;SDS011;50936;51.660;5.616;2022-08-01T06:58:34;14.73;;;5.90;;
64543;SDS011;50936;51.660;5.616;2022-08-01T07:01:02;11.13;;;5.90;;
64543;SDS011;50936;51.660;5.616;2022-08-01T07:03:34;9.32;;;5.60;;
64543;SDS011;50936;51.660;5.616;2022-08-01T07:06:23;11.05;;;6.18;;
64543;SDS011;50936;51.660;5.616;2022-08-01T07:08:52;9.55;;;5.38;;
64543;SDS011;50936;51.660;5.616;2022-08-01T07:11:20;13.20;;;6.65;;
64543;SDS011;50936;51.660;5.616;2022-08-01T07:13:50;10.57;;;6.00;;
64543;SDS011;50936;51.660;5.616;2022-08-01T07:16:16;11.23;;;5.78;;
64543;SDS011;50936;51.660;5.616;2022-08-01T07:18:44;13.18;;;6.10;;
64543;SDS011;50936;51.660;5.616;2022-08-01T07:21:11;12.73;;;6.38;;
64543;SDS011;50936;51.660;5.616;2022-08-01T07:23:58;8.57;;;5.50;;
64543;SDS011;50936;51.660;5.616;2022-08-01T07:26:25;8.82;;;5.47;;
64543;SDS011;50936;51.660;5.616;2022-08-01T07:28:53;10.32;;;5.65;;
64543;SDS011;50936;51.660;5.616;2022-08-01T07:31:20;8.30;;;4.90;;
64543;SDS011;50936;51.660;5.616;2022-08-01T07:33:47;10.02;;;5.30;;
64543;SDS011;50936;51.660;5.616;2022-08-01T07:36:15;10.50;;;5.43;;
64543;SDS011;50936;51.660;5.616;2022-08-01T07:38:44;7.80;;;4.50;;
64543;SDS011;50936;51.660;5.616;2022-08-01T07:41:11;9.15;;;4.95;;
64543;SDS011;50936;51.660;5.616;2022-08-01T07:43:38;8.30;;;4.95;;
64543;SDS011;50936;51.660;5.616;2022-08-01T07:46:12;7.68;;;4.55;;
64543;SDS011;50936;51.660;5.616;2022-08-01T07:48:39;8.77;;;5.28;;
64543;SDS011;50936;51.660;5.616;2022-08-01T07:51:06;8.90;;;5.05;;
64543;SDS011;50936;51.660;5.616;2022-08-01T07:53:33;8.40;;;4.50;;
64543;SDS011;50936;51.660;5.616;2022-08-01T07:55:59;7.80;;;3.95;;
64543;SDS011;50936;51.660;5.616;2022-08-01T07:58:28;7.95;;;3.80;;
64543;SDS011;50936;51.660;5.616;2022-08-01T08:00:55;6.43;;;3.10;;
64543;SDS011;50936;51.660;5.616;2022-08-01T08:03:22;5.90;;;3.30;;
64543;SDS011;50936;51.660;5.616;2022-08-01T08:05:49;6.00;;;3.55;;
64543;SDS011;50936;51.660;5.616;2022-08-01T08:08:25;5.97;;;3.65;;
64543;SDS011;50936;51.660;5.616;2022-08-01T08:10:53;9.10;;;4.25;;
64543;SDS011;50936;51.660;5.616;2022-08-01T08:13:21;7.22;;;3.63;;
64543;SDS011;50936;51.660;5.616;2022-08-01T08:15:48;7.07;;;3.85;;
64543;SDS011;50936;51.660;5.616;2022-08-01T08:18:15;8.15;;;4.55;;
64543;SDS011;50936;51.660;5.616;2022-08-01T08:20:42;6.85;;;4.05;;
64543;SDS011;50936;51.660;5.616;2022-08-01T08:23:09;9.45;;;4.35;;
64543;SDS011;50936;51.660;5.616;2022-08-01T08:26:12;6.97;;;4.22;;
64543;SDS011;50936;51.660;5.616;2022-08-01T08:28:39;5.35;;;3.00;;
64543;SDS011;50936;51.660;5.616;2022-08-01T08:31:06;5.13;;;2.80;;
64543;SDS011;50936;51.660;5.616;2022-08-01T08:33:51;5.80;;;2.60;;
64543;SDS011;50936;51.660;5.616;2022-08-01T08:36:18;4.47;;;2.28;;
64543;SDS011;50936;51.660;5.616;2022-08-01T08:38:45;5.88;;;2.33;;
64543;SDS011;50936;51.660;5.616;2022-08-01T08:41:12;3.38;;;2.03;;
64543;SDS011;50936;51.660;5.616;2022-08-01T08:43:46;6.15;;;2.53;;
64543;SDS011;50936;51.660;5.616;2022-08-01T08:46:14;5.72;;;3.50;;
64543;SDS011;50936;51.660;5.616;2022-08-01T08:48:41;4.55;;;2.67;;
64543;SDS011;50936;51.660;5.616;2022-08-01T08:51:09;4.35;;;2.38;;
64543;SDS011;50936;51.660;5.616;2022-08-01T08:53:40;3.47;;;2.08;;
64543;SDS011;50936;51.660;5.616;2022-08-01T08:56:11;4.10;;;2.33;;
64543;SDS011;50936;51.660;5.616;2022-08-01T08:58:40;6.57;;;3.00;;
64543;SDS011;50936;51.660;5.616;2022-08-01T09:01:11;4.78;;;2.60;;
64543;SDS011;50936;51.660;5.616;2022-08-01T09:03:39;5.18;;;2.45;;
64543;SDS011;50936;51.660;5.616;2022-08-01T09:06:07;5.55;;;2.65;;
64543;SDS011;50936;51.660;5.616;2022-08-01T09:08:34;5.20;;;2.13;;
64543;SDS011;50936;51.660;5.616;2022-08-01T09:11:02;3.85;;;2.10;;
64543;SDS011;50936;51.660;5.616;2022-08-01T09:13:30;3.72;;;2.20;;
64543;SDS011;50936;51.660;5.616;2022-08-01T09:15:57;5.10;;;2.45;;
64543;SDS011;50936;51.660;5.616;2022-08-01T09:18:29;3.50;;;1.77;;
64543;SDS011;50936;51.660;5.616;2022-08-01T09:21:19;3.42;;;2.00;;
64543;SDS011;50936;51.660;5.616;2022-08-01T09:23:53;2.70;;;1.60;;
64543;SDS011;50936;51.660;5.616;2022-08-01T09:26:22;2.50;;;1.50;;
64543;SDS011;50936;51.660;5.616;2022-08-01T09:28:59;3.38;;;1.70;;
64543;SDS011;50936;51.660;5.616;2022-08-01T09:31:42;2.15;;;1.50;;
64543;SDS011;50936;51.660;5.616;2022-08-01T09:34:13;2.67;;;1.67;;
64543;SDS011;50936;51.660;5.616;2022-08-01T09:36:46;2.80;;;1.52;;
64543;SDS011;50936;51.660;5.616;2022-08-01T09:39:23;4.07;;;1.90;;
64543;SDS011;50936;51.660;5.616;2022-08-01T09:41:53;3.15;;;1.60;;
64543;SDS011;50936;51.660;5.616;2022-08-01T09:44:38;4.28;;;1.63;;
64543;SDS011;50936;51.660;5.616;2022-08-01T09:47:20;3.30;;;1.50;;
64543;SDS011;50936;51.660;5.616;2022-08-01T09:49:55;3.08;;;1.35;;
64543;SDS011;50936;51.660;5.616;2022-08-01T09:52:26;2.72;;;1.50;;
64543;SDS011;50936;51.660;5.616;2022-08-01T09:54:58;2.65;;;1.65;;
64543;SDS011;50936;51.660;5.616;2022-08-01T09:57:29;2.90;;;1.38;;
64543;SDS011;50936;51.660;5.616;2022-08-01T09:59:57;2.42;;;1.52;;
64543;SDS011;50936;51.660;5.616;2022-08-01T10:02:39;2.58;;;1.40;;
64543;SDS011;50936;51.660;5.616;2022-08-01T10:05:07;1.85;;;1.20;;
64543;SDS011;50936;51.660;5.616;2022-08-01T10:07:59;1.88;;;1.33;;
64543;SDS011;50936;51.660;5.616;2022-08-01T10:10:33;2.45;;;1.30;;
64543;SDS011;50936;51.660;5.616;2022-08-01T10:13:02;3.25;;;1.65;;
64543;SDS011;50936;51.660;5.616;2022-08-01T10:15:30;2.67;;;1.33;;
64543;SDS011;50936;51.660;5.616;2022-08-01T10:18:03;2.67;;;1.23;;
64543;SDS011;50936;51.660;5.616;2022-08-01T10:20:51;3.15;;;1.50;;
64543;SDS011;50936;51.660;5.616;2022-08-01T10:23:24;2.15;;;1.20;;
64543;SDS011;50936;51.660;5.616;2022-08-01T10:26:06;1.70;;;1.30;;
64543;SDS011;50936;51.660;5.616;2022-08-01T10:28:36;2.92;;;1.40;;
64543;SDS011;50936;51.660;5.616;2022-08-01T10:31:06;2.97;;;1.58;;
64543;SDS011;50936;51.660;5.616;2022-08-01T10:33:40;3.55;;;1.40;;
64543;SDS011;50936;51.660;5.616;2022-08-01T10:36:20;3.70;;;1.88;;
64543;SDS011;50936;51.660;5.616;2022-08-01T10:38:51;4.68;;;1.92;;
64543;SDS011;50936;51.660;5.616;2022-08-01T10:41:21;2.50;;;1.48;;
64543;SDS011;50936;51.660;5.616;2022-08-01T10:43:52;3.33;;;1.50;;
64543;SDS011;50936;51.660;5.616;2022-08-01T10:46:20;3.70;;;1.67;;
64543;SDS011;50936;51.660;5.616;2022-08-01T10:48:55;2.72;;;1.55;;
64543;SDS011;50936;51.660;5.616;2022-08-01T10:51:30;6.50;;;1.98;;
64543;SDS011;50936;51.660;5.616;2022-08-01T10:54:18;2.20;;;1.40;;
64543;SDS011;50936;51.660;5.616;2022-08-01T10:56:50;4.40;;;1.67;;
64543;SDS011;50936;51.660;5.616;2022-08-01T10:59:22;1.88;;;1.00;;
64543;SDS011;50936;51.660;5.616;2022-08-01T11:02:13;1.52;;;0.70;;
64543;SDS011;50936;51.660;5.616;2022-08-01T11:05:00;1.45;;;0.93;;
64543;SDS011;50936;51.660;5.616;2022-08-01T11:07:38;1.80;;;0.90;;
64543;SDS011;50936;51.660;5.616;2022-08-01T11:10:16;1.30;;;1.00;;
64543;SDS011;50936;51.660;5.616;2022-08-01T11:12:50;2.05;;;1.10;;
64543;SDS011;50936;51.660;5.616;2022-08-01T11:15:17;1.55;;;0.90;;
64543;SDS011;50936;51.660;5.616;2022-08-01T11:17:56;2.38;;;0.90;;
64543;SDS011;50936;51.660;5.616;2022-08-01T11:20:27;1.98;;;1.20;;
64543;SDS011;50936;51.660;5.616;2022-08-01T11:28:26;2.17;;;1.30;;
64543;SDS011;50936;51.660;5.616;2022-08-01T11:38:43;3.67;;;1.60;;
64543;SDS011;50936;51.660;5.616;2022-08-01T11:43:56;3.78;;;1.65;;
64543;SDS011;50936;51.660;5.616;2022-08-01T11:54:55;3.45;;;1.50;;
64543;SDS011;50936;51.660;5.616;2022-08-01T11:57:25;2.50;;;1.58;;
64543;SDS011;50936;51.660;5.616;2022-08-01T12:00:03;4.10;;;1.40;;
64543;SDS011;50936;51.660;5.616;2022-08-01T12:02:42;3.88;;;1.25;;
64543;SDS011;50936;51.660;5.616;2022-08-01T12:05:24;3.40;;;1.67;;
64543;SDS011;50936;51.660;5.616;2022-08-01T12:07:57;6.22;;;1.60;;
64543;SDS011;50936;51.660;5.616;2022-08-01T12:10:25;2.78;;;1.20;;
64543;SDS011;50936;51.660;5.616;2022-08-01T12:13:12;5.75;;;1.20;;
64543;SDS011;50936;51.660;5.616;2022-08-01T12:15:39;1.85;;;1.00;;
64543;SDS011;50936;51.660;5.616;2022-08-01T12:18:06;2.92;;;1.33;;
64543;SDS011;50936;51.660;5.616;2022-08-01T12:20:35;3.30;;;1.13;;
64543;SDS011;50936;51.660;5.616;2022-08-01T12:23:22;4.07;;;1.30;;
64543;SDS011;50936;51.660;5.616;2022-08-01T12:25:51;5.43;;;1.75;;
64543;SDS011;50936;51.660;5.616;2022-08-01T12:28:19;3.92;;;1.55;;
64543;SDS011;50936;51.660;5.616;2022-08-01T12:30:47;3.22;;;1.65;;
64543;SDS011;50936;51.660;5.616;2022-08-01T12:33:19;3.70;;;1.40;;
64543;SDS011;50936;51.660;5.616;2022-08-01T12:35:47;4.13;;;1.35;;
64543;SDS011;50936;51.660;5.616;2022-08-01T12:38:15;6.22;;;1.80;;
64543;SDS011;50936;51.660;5.616;2022-08-01T12:40:48;6.90;;;2.15;;
64543;SDS011;50936;51.660;5.616;2022-08-01T12:43:20;6.90;;;1.60;;
64543;SDS011;50936;51.660;5.616;2022-08-01T12:45:54;6.38;;;1.80;;
64543;SDS011;50936;51.660;5.616;2022-08-01T12:48:25;3.50;;;1.67;;
64543;SDS011;50936;51.660;5.616;2022-08-01T12:50:53;6.53;;;2.55;;
64543;SDS011;50936;51.660;5.616;2022-08-01T12:53:24;6.60;;;2.13;;
64543;SDS011;50936;51.660;5.616;2022-08-01T12:56:07;6.10;;;1.73;;
64543;SDS011;50936;51.660;5.616;2022-08-01T12:58:36;4.80;;;1.38;;
64543;SDS011;50936;51.660;5.616;2022-08-01T13:01:08;5.90;;;1.90;;
64543;SDS011;50936;51.660;5.616;2022-08-01T13:03:38;3.78;;;1.55;;
64543;SDS011;50936;51.660;5.616;2022-08-01T13:06:12;5.78;;;1.95;;
64543;SDS011;50936;51.660;5.616;2022-08-01T13:08:42;4.82;;;2.00;;
64543;SDS011;50936;51.660;5.616;2022-08-01T13:11:11;5.63;;;2.00;;
64543;SDS011;50936;51.660;5.616;2022-08-01T13:13:46;7.15;;;1.80;;
64543;SDS011;50936;51.660;5.616;2022-08-01T13:16:19;4.47;;;1.50;;
64543;SDS011;50936;51.660;5.616;2022-08-01T13:19:12;6.07;;;1.85;;
64543;SDS011;50936;51.660;5.616;2022-08-01T13:21:44;5.45;;;1.92;;
64543;SDS011;50936;51.660;5.616;2022-08-01T13:24:25;3.70;;;1.83;;
64543;SDS011;50936;51.660;5.616;2022-08-01T13:26:59;5.57;;;2.03;;
64543;SDS011;50936;51.660;5.616;2022-08-01T13:29:34;6.95;;;1.90;;
64543;SDS011;50936;51.660;5.616;2022-08-01T13:35:05;6.07;;;1.73;;
64543;SDS011;50936;51.660;5.616;2022-08-01T13:37:39;3.08;;;1.60;;
64543;SDS011;50936;51.660;5.616;2022-08-01T13:40:09;5.70;;;1.90;;
64543;SDS011;50936;51.660;5.616;2022-08-01T13:42:37;3.63;;;1.95;;
64543;SDS011;50936;51.660;5.616;2022-08-01T13:45:05;4.68;;;2.05;;
64543;SDS011;50936;51.660;5.616;2022-08-01T13:47:40;5.03;;;1.55;;
64543;SDS011;50936;51.660;5.616;2022-08-01T13:50:29;3.35;;;1.90;;
64543;SDS011;50936;51.660;5.616;2022-08-01T13:52:56;5.68;;;1.80;;
64543;SDS011;50936;51.660;5.616;2022-08-01T13:55:23;5.97;;;1.70;;
64543;SDS011;50936;51.660;5.616;2022-08-01T13:57:49;8.38;;;2.10;;
64543;SDS011;50936;51.660;5.616;2022-08-01T14:00:16;6.18;;;2.08;;
64543;SDS011;50936;51.660;5.616;2022-08-01T14:02:43;3.10;;;1.70;;
64543;SDS011;50936;51.660;5.616;2022-08-01T14:05:10;6.13;;;1.95;;
64543;SDS011;50936;51.660;5.616;2022-08-01T14:07:37;5.43;;;2.00;;
64543;SDS011;50936;51.660;5.616;2022-08-01T14:10:06;5.22;;;1.70;;
64543;SDS011;50936;51.660;5.616;2022-08-01T14:12:49;5.10;;;1.83;;
64543;SDS011;50936;51.660;5.616;2022-08-01T14:15:16;5.30;;;1.75;;
64543;SDS011;50936;51.660;5.616;2022-08-01T14:18:05;8.15;;;2.00;;
64543;SDS011;50936;51.660;5.616;2022-08-01T14:20:36;5.47;;;1.90;;
64543;SDS011;50936;51.660;5.616;2022-08-01T14:23:05;5.53;;;1.58;;
64543;SDS011;50936;51.660;5.616;2022-08-01T14:25:37;4.97;;;2.03;;
64543;SDS011;50936;51.660;5.616;2022-08-01T14:28:26;5.88;;;1.90;;
64543;SDS011;50936;51.660;5.616;2022-08-01T14:30:54;6.47;;;1.90;;
64543;SDS011;50936;51.660;5.616;2022-08-01T14:33:25;6.50;;;1.80;;
64543;SDS011;50936;51.660;5.616;2022-08-01T14:35:52;7.95;;;2.28;;
64543;SDS011;50936;51.660;5.616;2022-08-01T14:38:40;7.20;;;2.30;;
64543;SDS011;50936;51.660;5.616;2022-08-01T14:41:06;3.08;;;1.67;;
64543;SDS011;50936;51.660;5.616;2022-08-01T14:43:34;6.40;;;1.98;;
64543;SDS011;50936;51.660;5.616;2022-08-01T14:46:01;5.38;;;2.05;;
64543;SDS011;50936;51.660;5.616;2022-08-01T14:48:29;4.20;;;1.95;;
64543;SDS011;50936;51.660;5.616;2022-08-01T14:50:57;5.38;;;1.67;;
64543;SDS011;50936;51.660;5.616;2022-08-01T14:53:28;6.03;;;1.92;;
64543;SDS011;50936;51.660;5.616;2022-08-01T14:55:55;6.55;;;1.90;;
64543;SDS011;50936;51.660;5.616;2022-08-01T14:58:22;6.53;;;2.03;;
64543;SDS011;50936;51.660;5.616;2022-08-01T15:00:49;8.50;;;2.17;;
64543;SDS011;50936;51.660;5.616;2022-08-01T15:03:21;6.47;;;2.20;;
64543;SDS011;50936;51.660;5.616;2022-08-01T15:05:48;5.22;;;1.98;;
64543;SDS011;50936;51.660;5.616;2022-08-01T15:08:15;7.68;;;2.00;;
64543;SDS011;50936;51.660;5.616;2022-08-01T15:10:42;5.70;;;2.25;;
64543;SDS011;50936;51.660;5.616;2022-08-01T15:13:09;7.18;;;1.88;;
64543;SDS011;50936;51.660;5.616;2022-08-01T15:15:35;5.85;;;2.28;;
64543;SDS011;50936;51.660;5.616;2022-08-01T15:18:02;7.93;;;2.22;;
64543;SDS011;50936;51.660;5.616;2022-08-01T15:20:29;7.10;;;2.00;;
64543;SDS011;50936;51.660;5.616;2022-08-01T15:22:56;4.60;;;1.90;;
64543;SDS011;50936;51.660;5.616;2022-08-01T15:25:23;5.65;;;1.90;;
64543;SDS011;50936;51.660;5.616;2022-08-01T15:27:50;7.13;;;1.95;;
64543;SDS011;50936;51.660;5.616;2022-08-01T15:30:17;7.97;;;2.40;;
64543;SDS011;50936;51.660;5.616;2022-08-01T15:32:52;11.60;;;2.10;;
64543;SDS011;50936;51.660;5.616;2022-08-01T15:35:19;6.40;;;1.63;;
64543;SDS011;50936;51.660;5.616;2022-08-01T15:37:46;6.63;;;1.98;;
64543;SDS011;50936;51.660;5.616;2022-08-01T15:40:13;4.20;;;1.80;;
64543;SDS011;50936;51.660;5.616;2022-08-01T15:42:40;4.88;;;1.70;;
64543;SDS011;50936;51.660;5.616;2022-08-01T15:45:07;4.35;;;1.88;;
64543;SDS011;50936;51.660;5.616;2022-08-01T15:47:55;4.78;;;1.60;;